Time;durP1;ratioP1;P1;durP2;ratioP2;P2;SDS_P1;SDS_P2;PMS_P1;PMS_P2;Temp;Humidity;BMP_temperature;BMP_pressure;BME280_temperature;BME280_humidity;BME280_pressure;Samples;Min_cycle;Max_cycle;Signal;HPM_P1;HPM_P2
2023/10/30 00:02:18;;;;;;;6.90;3.17;;;;;;;;;;7370232;19;20468;-76
2023/10/30 00:04:43;;;;;;;8.23;3.72;;;;;;;;;;7370678;19;20006;-75
2023/10/30 00:07:08;;;;;;;9.00;3.80;;;;;;;;;;7366518;19;20033;-75
2023/10/30 00:09:34;;;;;;;9.55;3.92;;;;;;;;;;7388832;19;20003;-76
2023/10/30 00:12:00;;;;;;;8.35;4.22;;;;;;;;;;7365421;19;20425;-75
2023/10/30 00:14:26;;;;;;;7.47;3.35;;;;;;;;;;7366298;19;20023;-77
2023/10/30 00:16:51;;;;;;;10.38;4.10;;;;;;;;;;7367839;19;20014;-75
2023/10/30 00:19:17;;;;;;;7.05;4.20;;;;;;;;;;7368595;19;20006;-77
2023/10/30 00:21:43;;;;;;;7.20;3.83;;;;;;;;;;7387943;19;20022;-75
2023/10/30 00:24:08;;;;;;;7.15;4.03;;;;;;;;;;7365743;19;20006;-75
2023/10/30 00:26:35;;;;;;;9.90;3.70;;;;;;;;;;7370994;19;20078;-75
2023/10/30 00:29:01;;;;;;;9.80;4.60;;;;;;;;;;7366910;19;20074;-75
2023/10/30 00:31:26;;;;;;;9.60;4.30;;;;;;;;;;7362217;19;20032;-75
2023/10/30 00:33:53;;;;;;;9.45;4.32;;;;;;;;;;7363622;19;20030;-75
2023/10/30 00:36:18;;;;;;;13.55;6.50;;;;;;;;;;7389245;19;20073;-75
2023/10/30 00:38:44;;;;;;;8.05;4.35;;;;;;;;;;7367455;19;20501;-75
2023/10/30 00:41:10;;;;;;;8.32;4.47;;;;;;;;;;7367404;19;20014;-75
2023/10/30 00:43:39;;;;;;;14.05;4.80;;;;;;;;;;7365969;19;20014;-75
2023/10/30 00:46:06;;;;;;;7.15;4.78;;;;;;;;;;7367709;19;20031;-75
2023/10/30 00:48:32;;;;;;;9.50;4.97;;;;;;;;;;7389884;19;20015;-75
2023/10/30 00:50:58;;;;;;;9.88;5.68;;;;;;;;;;7368341;19;20532;-75
2023/10/30 00:53:23;;;;;;;12.52;5.80;;;;;;;;;;7369826;19;20654;-75
2023/10/30 00:55:50;;;;;;;10.55;6.00;;;;;;;;;;7369934;19;20023;-75
2023/10/30 00:58:15;;;;;;;13.77;5.70;;;;;;;;;;7370151;19;20131;-75
2023/10/30 01:00:40;;;;;;;13.57;6.07;;;;;;;;;;7390871;19;20010;-75
2023/10/30 01:03:06;;;;;;;9.70;5.88;;;;;;;;;;7367905;19;20010;-75
2023/10/30 01:05:31;;;;;;;10.20;5.82;;;;;;;;;;7369567;19;20016;-75
2023/10/30 01:07:56;;;;;;;9.20;6.07;;;;;;;;;;7369746;19;20003;-75
2023/10/30 01:10:21;;;;;;;13.90;5.57;;;;;;;;;;7369124;19;20011;-75
2023/10/30 01:12:47;;;;;;;16.15;5.97;;;;;;;;;;7376197;19;20003;-75
2023/10/30 01:15:13;;;;;;;10.68;4.90;;;;;;;;;;7384434;19;20046;-75
2023/10/30 01:17:39;;;;;;;13.43;4.15;;;;;;;;;;7369382;19;20006;-75
2023/10/30 01:20:05;;;;;;;8.07;3.85;;;;;;;;;;7370119;19;20003;-75
2023/10/30 01:22:30;;;;;;;9.43;4.00;;;;;;;;;;7368739;19;20499;-75
2023/10/30 01:24:56;;;;;;;8.55;3.63;;;;;;;;;;7368466;19;20087;-75
2023/10/30 01:27:22;;;;;;;9.73;3.88;;;;;;;;;;7391616;19;20031;-75
2023/10/30 01:29:47;;;;;;;8.10;3.72;;;;;;;;;;7369893;19;20074;-75
2023/10/30 01:32:12;;;;;;;8.40;3.47;;;;;;;;;;7370379;19;20006;-75
2023/10/30 01:34:38;;;;;;;8.20;3.10;;;;;;;;;;7371048;19;20007;-75
2023/10/30 01:37:03;;;;;;;8.45;3.05;;;;;;;;;;7367395;19;20415;-75
2023/10/30 01:39:29;;;;;;;8.88;3.28;;;;;;;;;;7389723;19;20332;-75
2023/10/30 01:41:54;;;;;;;10.52;3.08;;;;;;;;;;7369403;19;20356;-75
2023/10/30 01:44:19;;;;;;;6.45;2.72;;;;;;;;;;7373343;19;20002;-75
2023/10/30 01:46:45;;;;;;;8.27;2.67;;;;;;;;;;7375478;19;20511;-75
2023/10/30 01:49:10;;;;;;;6.75;2.75;;;;;;;;;;7375162;19;20067;-75
2023/10/30 01:51:36;;;;;;;9.00;2.90;;;;;;;;;;7394639;19;20026;-75
2023/10/30 01:54:02;;;;;;;9.52;2.88;;;;;;;;;;7372687;19;20002;-75
2023/10/30 01:56:30;;;;;;;7.18;2.67;;;;;;;;;;7371606;19;20090;-75
2023/10/30 01:58:55;;;;;;;8.82;2.97;;;;;;;;;;7372972;19;20078;-75
2023/10/30 02:01:22;;;;;;;8.00;2.85;;;;;;;;;;7368934;19;20014;-75
2023/10/30 02:03:48;;;;;;;6.25;2.65;;;;;;;;;;7368433;19;19995;-75
2023/10/30 02:06:14;;;;;;;5.97;2.88;;;;;;;;;;7389461;19;20002;-75
2023/10/30 02:08:39;;;;;;;8.27;3.10;;;;;;;;;;7367617;19;20061;-75
2023/10/30 02:11:05;;;;;;;6.75;2.75;;;;;;;;;;7366348;19;20042;-76
2023/10/30 02:13:30;;;;;;;5.10;2.88;;;;;;;;;;7365773;19;20026;-75
2023/10/30 02:15:55;;;;;;;8.30;3.05;;;;;;;;;;7367488;19;20031;-76
2023/10/30 02:18:21;;;;;;;8.77;2.85;;;;;;;;;;7388775;19;20429;-75
2023/10/30 02:20:47;;;;;;;13.07;2.95;;;;;;;;;;7367856;19;20006;-75
2023/10/30 02:23:12;;;;;;;8.13;2.80;;;;;;;;;;7366359;19;20054;-76
2023/10/30 02:25:38;;;;;;;7.55;2.90;;;;;;;;;;7366059;19;20026;-75
2023/10/30 02:28:03;;;;;;;9.88;2.85;;;;;;;;;;7367049;19;20026;-74
2023/10/30 02:30:29;;;;;;;7.97;3.03;;;;;;;;;;7388039;19;20458;-74
2023/10/30 02:32:54;;;;;;;8.15;3.10;;;;;;;;;;7363520;19;20025;-74
2023/10/30 02:35:20;;;;;;;9.25;2.85;;;;;;;;;;7363924;19;20006;-75
2023/10/30 02:37:46;;;;;;;6.72;3.17;;;;;;;;;;7363521;19;20094;-75
2023/10/30 02:40:13;;;;;;;6.88;2.55;;;;;;;;;;7364426;19;20013;-76
2023/10/30 02:42:39;;;;;;;6.40;2.53;;;;;;;;;;7384665;19;20337;-76
2023/10/30 02:45:05;;;;;;;5.75;2.70;;;;;;;;;;7362364;19;20011;-75
2023/10/30 02:47:31;;;;;;;5.60;2.40;;;;;;;;;;7363429;19;20017;-74
2023/10/30 02:49:56;;;;;;;9.30;2.67;;;;;;;;;;7363959;19;20036;-75
2023/10/30 02:52:22;;;;;;;11.75;3.13;;;;;;;;;;7365568;19;20010;-75
2023/10/30 02:54:47;;;;;;;8.48;2.67;;;;;;;;;;7371010;19;20543;-75
2023/10/30 02:57:16;;;;;;;7.82;2.13;;;;;;;;;;7385017;19;19999;-75
2023/10/30 02:59:41;;;;;;;6.25;2.10;;;;;;;;;;7369137;19;20006;-75
2023/10/30 03:02:07;;;;;;;6.35;2.28;;;;;;;;;;7366968;19;20006;-75
2023/10/30 03:04:33;;;;;;;6.72;2.05;;;;;;;;;;7365552;19;20006;-75
2023/10/30 03:06:59;;;;;;;6.10;2.30;;;;;;;;;;7359348;19;20018;-75
2023/10/30 03:09:35;;;;;;;6.80;2.10;;;;;;;;;;7387722;19;20025;-75
2023/10/30 03:12:00;;;;;;;8.05;2.20;;;;;;;;;;7366568;19;20023;-75
2023/10/30 03:14:26;;;;;;;6.60;2.10;;;;;;;;;;7370825;19;20116;-75
2023/10/30 03:16:51;;;;;;;4.80;1.98;;;;;;;;;;7365571;19;20013;-75
2023/10/30 03:19:18;;;;;;;10.30;2.17;;;;;;;;;;7366508;19;20010;-75
2023/10/30 03:21:43;;;;;;;8.43;3.00;;;;;;;;;;7386299;19;20002;-75
2023/10/30 03:24:09;;;;;;;8.00;2.72;;;;;;;;;;7363822;19;20009;-75
2023/10/30 03:26:34;;;;;;;8.23;2.30;;;;;;;;;;7365144;19;20013;-75
2023/10/30 03:29:00;;;;;;;8.80;2.38;;;;;;;;;;7364032;19;20014;-75
2023/10/30 03:31:25;;;;;;;8.13;2.72;;;;;;;;;;7364654;19;20018;-75
2023/10/30 03:33:50;;;;;;;11.30;2.28;;;;;;;;;;7362942;19;20002;-75
2023/10/30 03:36:25;;;;;;;9.82;4.45;;;;;;;;;;7385703;19;20471;-75
2023/10/30 03:38:51;;;;;;;13.30;5.05;;;;;;;;;;7364248;19;20361;-75
2023/10/30 03:41:17;;;;;;;8.02;3.30;;;;;;;;;;7364989;19;20137;-75
2023/10/30 03:43:43;;;;;;;8.32;2.47;;;;;;;;;;7362085;19;20030;-75
2023/10/30 03:46:08;;;;;;;8.77;1.95;;;;;;;;;;7364141;19;20029;-75
2023/10/30 03:48:33;;;;;;;8.98;2.08;;;;;;;;;;7386302;19;20015;-75
2023/10/30 03:50:59;;;;;;;5.07;1.95;;;;;;;;;;7362546;19;20047;-75
2023/10/30 03:53:25;;;;;;;6.60;1.77;;;;;;;;;;7363517;19;20035;-75
2023/10/30 03:55:50;;;;;;;3.28;1.75;;;;;;;;;;7364235;19;20011;-75
2023/10/30 03:58:16;;;;;;;8.88;1.92;;;;;;;;;;7364383;19;20606;-75
2023/10/30 04:00:41;;;;;;;7.35;1.90;;;;;;;;;;7386141;19;20692;-74
2023/10/30 04:03:07;;;;;;;7.22;2.15;;;;;;;;;;7362818;19;20006;-75
2023/10/30 04:05:33;;;;;;;8.18;2.10;;;;;;;;;;7363505;19;19998;-75
2023/10/30 04:07:58;;;;;;;12.18;2.60;;;;;;;;;;7367808;19;20002;-75
2023/10/30 04:10:23;;;;;;;10.45;3.80;;;;;;;;;;7371153;19;20098;-75
2023/10/30 04:12:49;;;;;;;5.88;3.42;;;;;;;;;;7370292;19;20207;-75
2023/10/30 04:15:15;;;;;;;12.10;4.32;;;;;;;;;;7389945;19;20472;-75
2023/10/30 04:17:40;;;;;;;8.77;2.90;;;;;;;;;;7372790;19;20074;-75
2023/10/30 04:20:06;;;;;;;49.00;34.50;;;;;;;;;;7371992;19;20011;-75
2023/10/30 04:22:31;;;;;;;24.77;19.15;;;;;;;;;;7369691;19;20011;-74
2023/10/30 04:24:57;;;;;;;19.20;11.13;;;;;;;;;;7369826;19;20684;-75
2023/10/30 04:27:22;;;;;;;15.15;9.55;;;;;;;;;;7392424;19;19994;-75
2023/10/30 04:29:48;;;;;;;15.57;8.68;;;;;;;;;;7369956;19;20094;-75
2023/10/30 04:32:13;;;;;;;13.48;7.03;;;;;;;;;;7370154;19;20072;-75
2023/10/30 04:34:38;;;;;;;7.25;2.65;;;;;;;;;;7370431;19;20686;-75
2023/10/30 04:37:05;;;;;;;5.15;2.60;;;;;;;;;;7370210;19;20002;-75
2023/10/30 04:39:30;;;;;;;6.93;2.67;;;;;;;;;;7395051;19;20781;-75
2023/10/30 04:41:56;;;;;;;9.23;4.63;;;;;;;;;;7377357;19;20027;-75
2023/10/30 04:44:21;;;;;;;9.50;3.05;;;;;;;;;;7373046;19;20007;-75
2023/10/30 04:46:47;;;;;;;9.57;3.95;;;;;;;;;;7370459;19;20038;-75
2023/10/30 04:49:12;;;;;;;5.38;2.72;;;;;;;;;;7369512;19;20022;-75
2023/10/30 04:51:38;;;;;;;8.02;2.80;;;;;;;;;;7389577;19;19991;-75
2023/10/30 04:54:03;;;;;;;6.25;2.42;;;;;;;;;;7367888;19;20012;-75
2023/10/30 04:56:28;;;;;;;10.82;3.53;;;;;;;;;;7369314;19;20007;-75
2023/10/30 04:58:54;;;;;;;7.18;3.65;;;;;;;;;;7371723;19;20113;-76
2023/10/30 05:01:19;;;;;;;8.38;2.90;;;;;;;;;;7371904;19;20002;-76
2023/10/30 05:03:44;;;;;;;5.30;2.45;;;;;;;;;;7388488;19;20058;-75
2023/10/30 05:06:10;;;;;;;8.95;3.13;;;;;;;;;;7368717;19;20078;-76
2023/10/30 05:08:36;;;;;;;9.30;3.50;;;;;;;;;;7366461;19;20023;-75
2023/10/30 05:11:02;;;;;;;16.10;4.75;;;;;;;;;;7370016;19;20154;-75
2023/10/30 05:13:27;;;;;;;15.88;6.70;;;;;;;;;;7370881;19;19998;-76
2023/10/30 05:15:56;;;;;;;11.98;5.90;;;;;;;;;;7375572;19;19998;-76
2023/10/30 05:18:22;;;;;;;8.48;4.00;;;;;;;;;;7396385;19;20023;-75
2023/10/30 05:20:47;;;;;;;11.45;4.55;;;;;;;;;;7374909;19;20006;-77
2023/10/30 05:23:13;;;;;;;13.63;5.20;;;;;;;;;;7371394;19;20049;-77
2023/10/30 05:25:38;;;;;;;14.30;5.28;;;;;;;;;;7369232;19;20018;-76
2023/10/30 05:28:04;;;;;;;17.65;8.48;;;;;;;;;;7367983;19;20010;-77
2023/10/30 05:30:33;;;;;;;10.27;5.55;;;;;;;;;;7391145;19;20002;-77
2023/10/30 05:32:59;;;;;;;15.05;8.10;;;;;;;;;;7367487;19;20077;-76
2023/10/30 05:35:24;;;;;;;12.55;6.15;;;;;;;;;;7368402;19;20019;-76
2023/10/30 05:37:49;;;;;;;14.95;6.18;;;;;;;;;;7369508;19;20044;-76
2023/10/30 05:40:15;;;;;;;12.98;5.53;;;;;;;;;;7369453;19;20037;-76
2023/10/30 05:42:40;;;;;;;13.32;6.43;;;;;;;;;;7389634;19;20002;-75
2023/10/30 05:45:06;;;;;;;13.23;7.07;;;;;;;;;;7367961;19;20661;-76
2023/10/30 05:47:32;;;;;;;13.20;6.18;;;;;;;;;;7364154;19;20014;-76
2023/10/30 05:49:57;;;;;;;14.52;5.25;;;;;;;;;;7364694;19;20014;-76
2023/10/30 05:52:23;;;;;;;10.57;5.68;;;;;;;;;;7363776;19;20037;-76
2023/10/30 05:54:48;;;;;;;15.38;5.45;;;;;;;;;;7365714;19;20015;-75
2023/10/30 05:57:15;;;;;;;13.25;6.28;;;;;;;;;;7387690;19;20002;-75
2023/10/30 05:59:40;;;;;;;13.43;5.97;;;;;;;;;;7365520;19;20007;-74
2023/10/30 06:02:06;;;;;;;11.38;6.10;;;;;;;;;;7365991;19;20383;-75
2023/10/30 06:04:31;;;;;;;15.35;6.57;;;;;;;;;;7371659;19;20074;-77
2023/10/30 06:06:57;;;;;;;15.57;6.90;;;;;;;;;;7379780;19;20007;-76
2023/10/30 06:09:22;;;;;;;14.98;6.70;;;;;;;;;;7395176;19;20006;-76
2023/10/30 06:11:48;;;;;;;15.90;7.72;;;;;;;;;;7367031;19;20022;-76
2023/10/30 06:14:14;;;;;;;14.60;7.05;;;;;;;;;;7366965;19;20066;-76
2023/10/30 06:16:40;;;;;;;17.95;7.28;;;;;;;;;;7366856;19;20021;-76
2023/10/30 06:19:06;;;;;;;17.17;7.18;;;;;;;;;;7357676;19;20011;-75
2023/10/30 06:21:31;;;;;;;17.75;7.57;;;;;;;;;;7385939;19;20022;-77
2023/10/30 06:23:57;;;;;;;13.50;7.35;;;;;;;;;;7362568;19;20295;-75
2023/10/30 06:26:22;;;;;;;12.27;7.38;;;;;;;;;;7367480;19;20014;-76
2023/10/30 06:28:47;;;;;;;16.77;7.47;;;;;;;;;;7366967;19;20006;-76
2023/10/30 06:31:14;;;;;;;15.75;7.43;;;;;;;;;;7365537;19;20034;-76
2023/10/30 06:33:39;;;;;;;15.85;6.70;;;;;;;;;;7386060;19;20002;-76
2023/10/30 06:36:05;;;;;;;14.70;7.03;;;;;;;;;;7366509;19;20070;-76
2023/10/30 06:38:31;;;;;;;14.23;7.40;;;;;;;;;;7366057;19;20078;-76
2023/10/30 06:40:57;;;;;;;15.95;7.85;;;;;;;;;;7366196;19;20002;-76
2023/10/30 06:43:22;;;;;;;16.83;7.72;;;;;;;;;;7366579;19;20357;-77
2023/10/30 06:45:47;;;;;;;15.02;7.97;;;;;;;;;;7370099;19;20465;-75
2023/10/30 06:48:13;;;;;;;19.65;8.48;;;;;;;;;;7388578;19;20070;-75
2023/10/30 06:50:38;;;;;;;19.13;8.30;;;;;;;;;;7366537;19;20074;-76
2023/10/30 06:53:03;;;;;;;18.02;9.57;;;;;;;;;;7366618;19;20018;-76
2023/10/30 06:55:31;;;;;;;16.67;8.88;;;;;;;;;;7366053;19;20018;-76
2023/10/30 06:57:56;;;;;;;24.25;10.02;;;;;;;;;;7367373;19;19994;-76
2023/10/30 07:00:23;;;;;;;20.15;9.65;;;;;;;;;;7389065;19;20013;-76
2023/10/30 07:02:48;;;;;;;18.65;10.52;;;;;;;;;;7365823;19;20547;-75
2023/10/30 07:05:14;;;;;;;29.52;18.40;;;;;;;;;;7365183;19;20158;-75
2023/10/30 07:07:41;;;;;;;32.33;21.27;;;;;;;;;;7366398;19;20492;-75
2023/10/30 07:10:07;;;;;;;22.80;14.88;;;;;;;;;;7366145;19;20073;-78
2023/10/30 07:12:32;;;;;;;19.73;12.75;;;;;;;;;;7387786;19;20010;-75
2023/10/30 07:14:57;;;;;;;22.35;13.32;;;;;;;;;;7364284;19;20070;-75
2023/10/30 07:17:23;;;;;;;23.02;12.40;;;;;;;;;;7366487;19;20500;-75
2023/10/30 07:19:48;;;;;;;22.67;11.48;;;;;;;;;;7366046;19;20018;-75
2023/10/30 07:22:14;;;;;;;23.35;11.90;;;;;;;;;;7365477;19;20569;-76
2023/10/30 07:24:39;;;;;;;19.48;11.40;;;;;;;;;;7387272;19;20022;-76
2023/10/30 07:27:05;;;;;;;19.80;11.63;;;;;;;;;;7372223;19;20040;-76
2023/10/30 07:29:31;;;;;;;21.40;10.93;;;;;;;;;;7367101;19;20103;-77
2023/10/30 07:31:56;;;;;;;19.23;11.10;;;;;;;;;;7366952;19;20010;-76
2023/10/30 07:34:22;;;;;;;31.83;15.60;;;;;;;;;;7366338;19;20035;-76
2023/10/30 07:36:48;;;;;;;18.58;12.18;;;;;;;;;;7375122;19;20003;-76
2023/10/30 07:39:13;;;;;;;20.90;12.55;;;;;;;;;;7388848;19;20013;-76
2023/10/30 07:41:39;;;;;;;25.35;12.27;;;;;;;;;;7365748;19;20006;-76
2023/10/30 07:44:05;;;;;;;24.55;13.43;;;;;;;;;;7371988;19;20007;-77
2023/10/30 07:46:30;;;;;;;32.78;21.35;;;;;;;;;;7373393;19;20015;-75
2023/10/30 07:48:55;;;;;;;23.67;14.23;;;;;;;;;;7373742;19;20015;-77
2023/10/30 07:51:21;;;;;;;27.48;17.42;;;;;;;;;;7394206;19;20009;-76
2023/10/30 07:53:46;;;;;;;24.67;12.98;;;;;;;;;;7371598;19;20030;-76
2023/10/30 07:56:11;;;;;;;53.97;36.30;;;;;;;;;;7372969;19;20015;-77
2023/10/30 07:58:37;;;;;;;23.85;13.10;;;;;;;;;;7372128;19;20011;-77
2023/10/30 08:01:03;;;;;;;21.58;12.18;;;;;;;;;;7366473;19;20092;-77
2023/10/30 08:03:28;;;;;;;20.75;13.07;;;;;;;;;;7391677;19;20003;-78
2023/10/30 08:05:53;;;;;;;25.42;16.67;;;;;;;;;;7374537;19;20010;-77
2023/10/30 08:08:19;;;;;;;19.08;12.32;;;;;;;;;;7376698;19;20046;-77
2023/10/30 08:10:45;;;;;;;19.13;11.57;;;;;;;;;;7372250;19;20335;-77
2023/10/30 08:13:11;;;;;;;18.77;12.50;;;;;;;;;;7373440;19;20031;-77
2023/10/30 08:15:36;;;;;;;17.13;11.55;;;;;;;;;;7398694;19;19999;-77
2023/10/30 08:18:03;;;;;;;23.33;16.77;;;;;;;;;;7373659;19;20019;-78
2023/10/30 08:20:28;;;;;;;21.92;12.73;;;;;;;;;;7379196;19;20006;-78
2023/10/30 08:22:54;;;;;;;20.75;11.48;;;;;;;;;;7377752;19;20009;-77
2023/10/30 08:25:19;;;;;;;19.50;12.80;;;;;;;;;;7379486;19;20015;-77
2023/10/30 08:27:45;;;;;;;18.70;11.20;;;;;;;;;;7407045;19;19998;-77
2023/10/30 08:30:10;;;;;;;18.95;12.27;;;;;;;;;;7386888;19;20006;-78
2023/10/30 08:32:39;;;;;;;17.27;11.20;;;;;;;;;;7389707;19;20002;-76
2023/10/30 08:35:05;;;;;;;17.17;10.73;;;;;;;;;;7387278;19;20020;-77
2023/10/30 08:37:30;;;;;;;15.73;9.85;;;;;;;;;;7391002;19;19995;-77
2023/10/30 08:39:56;;;;;;;14.57;9.32;;;;;;;;;;7390353;19;20026;-77
2023/10/30 08:42:21;;;;;;;15.02;8.52;;;;;;;;;;7418374;19;20007;-78
2023/10/30 08:44:47;;;;;;;17.02;9.30;;;;;;;;;;7411258;19;19999;-78
2023/10/30 08:47:14;;;;;;;13.90;8.57;;;;;;;;;;7413171;19;19994;-78
2023/10/30 08:49:39;;;;;;;12.48;8.55;;;;;;;;;;7414893;19;19994;-78
2023/10/30 08:52:05;;;;;;;14.18;8.38;;;;;;;;;;7412462;19;20020;-77
2023/10/30 08:54:31;;;;;;;14.63;7.70;;;;;;;;;;7436084;19;20024;-77
2023/10/30 08:56:56;;;;;;;13.50;8.43;;;;;;;;;;7414053;19;20047;-77
2023/10/30 08:59:21;;;;;;;13.88;8.90;;;;;;;;;;7413955;19;20022;-77
2023/10/30 09:01:47;;;;;;;15.82;9.00;;;;;;;;;;7413214;19;19987;-77
2023/10/30 09:04:12;;;;;;;15.38;9.13;;;;;;;;;;7409886;19;19990;-77
2023/10/30 09:06:37;;;;;;;15.02;8.40;;;;;;;;;;7434839;19;20005;-78
2023/10/30 09:09:03;;;;;;;10.30;7.93;;;;;;;;;;7413544;19;20001;-77
2023/10/30 09:11:28;;;;;;;14.80;9.25;;;;;;;;;;7411318;19;20003;-78
2023/10/30 09:13:53;;;;;;;12.23;8.80;;;;;;;;;;7409125;19;20016;-77
2023/10/30 09:16:19;;;;;;;12.35;8.88;;;;;;;;;;7411414;19;20010;-77
2023/10/30 09:18:44;;;;;;;15.82;9.82;;;;;;;;;;7435963;19;19995;-77
2023/10/30 09:21:10;;;;;;;15.32;9.00;;;;;;;;;;7414172;19;20007;-77
2023/10/30 09:23:35;;;;;;;14.38;9.15;;;;;;;;;;7413387;19;19999;-77
2023/10/30 09:26:02;;;;;;;18.15;10.65;;;;;;;;;;7411545;19;20018;-77
2023/10/30 09:28:28;;;;;;;13.55;9.25;;;;;;;;;;7410276;19;19987;-77
2023/10/30 09:30:53;;;;;;;13.25;9.00;;;;;;;;;;7411591;19;19979;-76
2023/10/30 09:33:18;;;;;;;12.48;8.02;;;;;;;;;;7432437;19;19987;-77
2023/10/30 09:35:44;;;;;;;12.82;8.55;;;;;;;;;;7411778;19;20005;-77
2023/10/30 09:38:10;;;;;;;12.98;8.38;;;;;;;;;;7411784;19;20001;-76
2023/10/30 09:40:35;;;;;;;13.68;8.27;;;;;;;;;;7410066;19;19994;-77
2023/10/30 09:43:04;;;;;;;14.48;7.00;;;;;;;;;;7407759;19;20042;-77
2023/10/30 09:45:29;;;;;;;10.70;6.82;;;;;;;;;;7431567;19;19997;-77
2023/10/30 09:47:56;;;;;;;11.48;5.85;;;;;;;;;;7409526;19;20002;-77
2023/10/30 09:50:23;;;;;;;10.13;5.70;;;;;;;;;;7409784;19;20029;-78
2023/10/30 09:52:50;;;;;;;8.70;5.20;;;;;;;;;;7406103;19;20001;-77
2023/10/30 09:55:18;;;;;;;13.70;5.63;;;;;;;;;;7406849;19;19998;-77
2023/10/30 09:57:45;;;;;;;9.10;5.13;;;;;;;;;;7430193;19;19997;-78
2023/10/30 10:00:12;;;;;;;8.52;4.85;;;;;;;;;;7404208;19;20014;-77
2023/10/30 10:02:37;;;;;;;10.35;4.63;;;;;;;;;;7400512;19;20007;-77
2023/10/30 10:05:04;;;;;;;10.00;4.05;;;;;;;;;;7403775;19;20046;-77
2023/10/30 10:07:30;;;;;;;8.65;4.57;;;;;;;;;;7405190;19;20003;-77
2023/10/30 10:10:00;;;;;;;8.75;3.97;;;;;;;;;;7404455;19;20013;-77
2023/10/30 10:12:26;;;;;;;7.03;3.67;;;;;;;;;;7422923;19;20026;-77
2023/10/30 10:14:51;;;;;;;8.40;3.75;;;;;;;;;;7378894;19;20366;-77
2023/10/30 10:17:16;;;;;;;6.82;3.67;;;;;;;;;;7373759;19;20011;-79
2023/10/30 10:19:45;;;;;;;6.03;3.63;;;;;;;;;;7374716;19;20007;-77
2023/10/30 10:22:14;;;;;;;7.65;3.63;;;;;;;;;;7374765;19;20613;-77
2023/10/30 10:24:40;;;;;;;7.55;3.97;;;;;;;;;;7399597;19;20066;-77
2023/10/30 10:27:06;;;;;;;7.53;3.67;;;;;;;;;;7370557;19;20023;-77
2023/10/30 10:29:33;;;;;;;7.32;3.50;;;;;;;;;;7367789;19;20361;-77
2023/10/30 10:31:58;;;;;;;6.30;3.08;;;;;;;;;;7368828;19;20010;-78
2023/10/30 10:34:24;;;;;;;5.90;2.72;;;;;;;;;;7371211;19;20014;-78
2023/10/30 10:36:49;;;;;;;8.93;3.05;;;;;;;;;;7370568;19;20010;-78
2023/10/30 10:39:15;;;;;;;6.00;2.63;;;;;;;;;;7390831;19;20508;-75
2023/10/30 10:41:42;;;;;;;6.22;2.60;;;;;;;;;;7369141;19;20026;-78
2023/10/30 10:44:09;;;;;;;5.57;2.58;;;;;;;;;;7368569;19;20032;-76
2023/10/30 10:46:35;;;;;;;5.65;2.45;;;;;;;;;;7368077;19;20017;-75
2023/10/30 10:49:01;;;;;;;4.78;2.42;;;;;;;;;;7368316;19;20571;-77
2023/10/30 10:51:38;;;;;;;4.57;2.10;;;;;;;;;;7389317;19;20441;-76
2023/10/30 10:54:26;;;;;;;3.92;2.10;;;;;;;;;;7367013;19;20022;-76
2023/10/30 10:56:53;;;;;;;5.70;2.33;;;;;;;;;;7369499;19;20380;-77
2023/10/30 10:59:25;;;;;;;4.88;2.30;;;;;;;;;;7368550;19;20006;-76
2023/10/30 11:01:54;;;;;;;8.07;2.78;;;;;;;;;;7369398;19;20018;-78
2023/10/30 11:04:20;;;;;;;4.95;2.72;;;;;;;;;;7369268;19;20370;-76
2023/10/30 11:06:53;;;;;;;5.55;2.72;;;;;;;;;;7388552;19;20006;-76
2023/10/30 11:09:24;;;;;;;5.97;2.80;;;;;;;;;;7367400;19;20066;-76
2023/10/30 11:12:31;;;;;;;5.90;2.55;;;;;;;;;;7366277;19;20029;-76
2023/10/30 11:15:09;;;;;;;8.45;2.60;;;;;;;;;;7365249;19;20007;-75
2023/10/30 11:17:36;;;;;;;4.82;2.13;;;;;;;;;;7368021;19;20360;-77
2023/10/30 11:20:03;;;;;;;6.25;2.40;;;;;;;;;;7368360;19;20347;-75
2023/10/30 11:22:42;;;;;;;4.55;2.20;;;;;;;;;;7367660;19;20497;-75
2023/10/30 11:25:36;;;;;;;6.03;2.33;;;;;;;;;;7367697;19;20007;-76
2023/10/30 11:28:03;;;;;;;6.68;2.30;;;;;;;;;;7366748;19;20022;-76
2023/10/30 11:30:31;;;;;;;3.83;2.08;;;;;;;;;;7389511;19;20010;-75
2023/10/30 11:32:57;;;;;;;4.50;1.90;;;;;;;;;;7365758;19;20375;-75
2023/10/30 11:35:24;;;;;;;3.10;1.95;;;;;;;;;;7368142;19;20351;-76
2023/10/30 11:37:50;;;;;;;5.15;2.00;;;;;;;;;;7374458;19;20027;-76
2023/10/30 11:40:18;;;;;;;4.40;1.50;;;;;;;;;;7368434;19;20010;-76
2023/10/30 11:42:43;;;;;;;3.88;1.98;;;;;;;;;;7392030;19;20044;-77
2023/10/30 11:45:25;;;;;;;3.33;1.65;;;;;;;;;;7373876;19;20015;-76
2023/10/30 11:48:03;;;;;;;2.83;1.58;;;;;;;;;;7371285;19;20747;-77
2023/10/30 11:50:42;;;;;;;4.32;1.65;;;;;;;;;;7373301;19;20026;-76
2023/10/30 11:53:09;;;;;;;3.05;1.63;;;;;;;;;;7379916;19;20014;-76
2023/10/30 11:55:39;;;;;;;3.33;1.70;;;;;;;;;;7376507;19;20003;-78
2023/10/30 11:58:05;;;;;;;4.65;1.70;;;;;;;;;;7378542;19;20014;-77
2023/10/30 12:00:30;;;;;;;2.17;1.40;;;;;;;;;;7397765;19;20009;-76
2023/10/30 12:02:56;;;;;;;4.47;1.60;;;;;;;;;;7373336;19;20002;-76
2023/10/30 12:05:21;;;;;;;3.92;1.60;;;;;;;;;;7370301;19;20051;-76
2023/10/30 12:07:49;;;;;;;3.05;1.63;;;;;;;;;;7368056;19;20006;-76
2023/10/30 12:10:14;;;;;;;2.88;1.60;;;;;;;;;;7363827;19;20003;-76
2023/10/30 12:12:40;;;;;;;3.65;1.92;;;;;;;;;;7385924;19;20078;-78
2023/10/30 12:15:06;;;;;;;3.67;1.55;;;;;;;;;;7364538;19;20077;-77
2023/10/30 12:17:32;;;;;;;4.20;2.10;;;;;;;;;;7364173;19;20019;-78
2023/10/30 12:19:57;;;;;;;2.58;1.60;;;;;;;;;;7365898;19;20003;-76
2023/10/30 12:22:23;;;;;;;3.10;1.48;;;;;;;;;;7364176;19;20003;-77
2023/10/30 12:24:49;;;;;;;2.83;1.42;;;;;;;;;;7364229;19;20007;-77
2023/10/30 12:27:20;;;;;;;2.67;1.20;;;;;;;;;;7385989;19;20415;-76
2023/10/30 12:29:45;;;;;;;4.82;1.25;;;;;;;;;;7369120;19;20322;-75
2023/10/30 12:32:11;;;;;;;1.10;1.00;;;;;;;;;;7371580;19;20481;-76
2023/10/30 12:34:37;;;;;;;1.10;1.10;;;;;;;;;;7371231;19;20504;-76
2023/10/30 12:37:23;;;;;;;2.38;1.10;;;;;;;;;;7371628;19;20001;-76
2023/10/30 12:40:09;;;;;;;1.40;1.20;;;;;;;;;;7365353;19;20062;-77
2023/10/30 12:42:40;;;;;;;1.42;1.10;;;;;;;;;;7391869;19;20361;-77
2023/10/30 12:45:09;;;;;;;;;;;;;;;;;;7372022;19;20374;-77
2023/10/30 12:47:36;;;;;;;2.58;1.33;;;;;;;;;;7370627;19;19921;-77
2023/10/30 12:50:01;;;;;;;4.43;1.42;;;;;;;;;;7371723;19;19994;-77
2023/10/30 12:52:27;;;;;;;3.38;1.55;;;;;;;;;;7370463;19;20490;-78
2023/10/30 12:54:59;;;;;;;3.22;1.80;;;;;;;;;;7376086;19;20043;-77
2023/10/30 12:57:25;;;;;;;2.28;1.30;;;;;;;;;;7400231;19;20002;-78
2023/10/30 12:59:50;;;;;;;2.22;1.33;;;;;;;;;;7373380;19;20490;-78
2023/10/30 13:02:16;;;;;;;1.75;1.30;;;;;;;;;;7371439;19;20155;-78
2023/10/30 13:04:41;;;;;;;3.60;1.40;;;;;;;;;;7372466;19;20108;-78
2023/10/30 13:07:07;;;;;;;4.57;1.90;;;;;;;;;;7372394;19;20477;-78
2023/10/30 13:09:33;;;;;;;7.97;4.60;;;;;;;;;;7405012;19;20104;-77
2023/10/30 13:11:58;;;;;;;5.05;1.63;;;;;;;;;;7381694;19;20109;-77
2023/10/30 13:14:23;;;;;;;2.50;1.30;;;;;;;;;;7381986;19;20010;-77
2023/10/30 13:16:49;;;;;;;1.70;1.20;;;;;;;;;;7375023;19;20432;-78
2023/10/30 13:19:14;;;;;;;1.95;1.10;;;;;;;;;;7373179;19;20014;-77
2023/10/30 13:21:40;;;;;;;4.78;1.27;;;;;;;;;;7397202;19;20480;-77
2023/10/30 13:24:07;;;;;;;3.75;1.60;;;;;;;;;;7369166;19;20014;-78
2023/10/30 13:26:33;;;;;;;2.25;1.30;;;;;;;;;;7373002;19;20375;-78
2023/10/30 13:28:59;;;;;;;3.95;1.52;;;;;;;;;;7376586;19;20033;-77
2023/10/30 13:31:24;;;;;;;3.20;1.30;;;;;;;;;;7370118;19;20011;-77
2023/10/30 13:33:49;;;;;;;1.48;1.25;;;;;;;;;;7368708;19;20026;-77
2023/10/30 13:36:17;;;;;;;3.90;1.45;;;;;;;;;;7391913;19;20527;-77
2023/10/30 13:38:44;;;;;;;3.25;1.58;;;;;;;;;;7370806;19;20070;-77
2023/10/30 13:41:09;;;;;;;5.32;1.80;;;;;;;;;;7367898;19;20006;-77
2023/10/30 13:43:35;;;;;;;7.10;1.88;;;;;;;;;;7368265;19;20010;-76
2023/10/30 13:46:00;;;;;;;3.92;1.83;;;;;;;;;;7368951;19;20031;-76
2023/10/30 13:48:26;;;;;;;4.85;1.90;;;;;;;;;;7389626;19;20562;-76
2023/10/30 13:50:51;;;;;;;4.00;2.00;;;;;;;;;;7369414;19;20592;-77
2023/10/30 13:53:17;;;;;;;6.15;2.13;;;;;;;;;;7370070;19;20010;-77
2023/10/30 13:55:42;;;;;;;4.72;1.95;;;;;;;;;;7369617;19;20006;-77
2023/10/30 13:58:07;;;;;;;4.32;2.00;;;;;;;;;;7368965;19;20014;-78
2023/10/30 14:00:33;;;;;;;6.68;1.98;;;;;;;;;;7389668;19;20006;-77
2023/10/30 14:03:00;;;;;;;5.20;2.17;;;;;;;;;;7367895;19;20033;-76
2023/10/30 14:05:25;;;;;;;4.13;1.95;;;;;;;;;;7368294;19;20484;-77
2023/10/30 14:07:50;;;;;;;6.03;2.15;;;;;;;;;;7369472;19;20013;-76
2023/10/30 14:10:16;;;;;;;6.80;2.20;;;;;;;;;;7369509;19;20488;-77
2023/10/30 14:12:41;;;;;;;3.50;2.00;;;;;;;;;;7390367;19;20490;-77
2023/10/30 14:15:07;;;;;;;7.05;1.98;;;;;;;;;;7368635;19;20008;-77
2023/10/30 14:17:32;;;;;;;7.88;2.00;;;;;;;;;;7368098;19;20547;-77
2023/10/30 14:19:58;;;;;;;4.57;2.28;;;;;;;;;;7368945;19;20063;-76
2023/10/30 14:22:23;;;;;;;7.50;2.97;;;;;;;;;;7368721;19;20412;-77
2023/10/30 14:24:48;;;;;;;5.38;2.10;;;;;;;;;;7368935;19;20469;-78
2023/10/30 14:27:14;;;;;;;10.68;3.95;;;;;;;;;;7392068;19;20359;-77
2023/10/30 14:29:39;;;;;;;4.88;1.90;;;;;;;;;;7368881;19;20020;-76
2023/10/30 14:32:05;;;;;;;8.10;2.33;;;;;;;;;;7367371;19;20022;-77